Time;durP1;ratioP1;P1;durP2;ratioP2;P2;SDS_P1;SDS_P2;PMS_P1;PMS_P2;Temp;Humidity;BMP_temperature;BMP_pressure;BME280_temperature;BME280_humidity;BME280_pressure;Samples;Min_cycle;Max_cycle;Signal;HPM_P1;HPM_P2
2022/01/20 00:00:13;;;;;;;28.70;3.00;;;;;;;;;;5021354;28;89070;-70
2022/01/20 00:02:41;;;;;;;27.48;3.00;;;;;;;;;;5025042;28;87025;-70
2022/01/20 00:05:24;;;;;;;20.35;2.95;;;;;;;;;;5021697;28;87943;-72
2022/01/20 00:08:19;;;;;;;22.23;2.90;;;;;;;;;;5021669;28;88265;-70
2022/01/20 00:27:11;;;;;;;14.48;2.97;;;;;;;;;;5021298;28;89196;-70
2022/01/20 00:30:08;;;;;;;17.98;2.83;;;;;;;;;;5022153;28;87211;-69
2022/01/20 00:32:50;;;;;;;18.45;2.63;;;;;;;;;;5021141;28;88379;-69
2022/01/20 00:35:21;;;;;;;26.73;3.50;;;;;;;;;;5020673;28;89292;-70
2022/01/20 00:37:47;;;;;;;23.15;3.15;;;;;;;;;;5002888;28;90630;-70
2022/01/20 00:40:19;;;;;;;21.98;3.35;;;;;;;;;;5021249;28;89839;-69
2022/01/20 00:42:45;;;;;;;23.85;3.40;;;;;;;;;;5003252;28;92214;-71
2022/01/20 00:45:12;;;;;;;15.02;2.25;;;;;;;;;;5021141;28;88335;-71
2022/01/20 00:47:39;;;;;;;21.65;3.00;;;;;;;;;;5023568;28;87914;-71
2022/01/20 00:50:07;;;;;;;20.00;2.78;;;;;;;;;;5002916;28;91661;-71
2022/01/20 00:52:33;;;;;;;23.63;2.80;;;;;;;;;;5002919;28;91895;-69
2022/01/20 00:54:59;;;;;;;17.70;2.63;;;;;;;;;;5021336;28;87805;-69
2022/01/20 00:57:26;;;;;;;23.58;2.42;;;;;;;;;;5020961;28;88277;-71
2022/01/20 00:59:52;;;;;;;17.92;2.97;;;;;;;;;;5020775;28;89023;-71
2022/01/20 01:02:19;;;;;;;17.50;2.63;;;;;;;;;;5001918;28;92569;-71
2022/01/20 01:04:45;;;;;;;14.35;2.45;;;;;;;;;;5021021;28;87744;-70
2022/01/20 01:07:33;;;;;;;21.52;2.67;;;;;;;;;;5002735;28;92379;-71
2022/01/20 01:09:59;;;;;;;18.48;2.63;;;;;;;;;;5005795;28;90091;-70
2022/01/20 01:12:38;;;;;;;16.90;3.47;;;;;;;;;;5002675;28;90364;-70
2022/01/20 01:15:11;;;;;;;20.08;3.20;;;;;;;;;;5019971;28;89581;-70
2022/01/20 01:20:25;;;;;;;15.60;2.15;;;;;;;;;;5020716;28;90320;-70
2022/01/20 01:22:51;;;;;;;20.85;2.58;;;;;;;;;;5002558;28;90402;-70
2022/01/20 01:25:18;;;;;;;22.75;2.58;;;;;;;;;;5020081;28;88037;-72
2022/01/20 01:27:45;;;;;;;20.70;2.53;;;;;;;;;;5001954;28;89954;-71
2022/01/20 01:32:51;;;;;;;13.27;2.38;;;;;;;;;;5005366;28;89284;-71
2022/01/20 01:35:20;;;;;;;21.98;2.58;;;;;;;;;;5019622;28;89066;-71
2022/01/20 01:40:33;;;;;;;18.10;2.85;;;;;;;;;;5002324;28;90927;-70
2022/01/20 01:43:02;;;;;;;14.82;2.80;;;;;;;;;;5002221;28;91209;-71
2022/01/20 01:45:32;;;;;;;17.85;2.78;;;;;;;;;;5020647;28;87918;-71
2022/01/20 01:47:59;;;;;;;21.33;2.95;;;;;;;;;;5001527;28;90340;-70
2022/01/20 01:50:27;;;;;;;15.20;2.50;;;;;;;;;;5001819;28;91610;-70
2022/01/20 01:52:55;;;;;;;19.05;3.13;;;;;;;;;;5001610;28;91167;-71
2022/01/20 01:55:21;;;;;;;24.55;2.92;;;;;;;;;;5022845;28;89904;-71
2022/01/20 01:57:49;;;;;;;16.80;2.80;;;;;;;;;;5002048;28;89830;-71
2022/01/20 02:00:18;;;;;;;19.98;2.67;;;;;;;;;;5001968;28;90854;-71
2022/01/20 02:02:51;;;;;;;19.73;2.90;;;;;;;;;;5001567;28;91486;-71
2022/01/20 02:05:23;;;;;;;21.70;3.20;;;;;;;;;;5001999;28;90849;-70
2022/01/20 02:18:59;;;;;;;19.73;2.63;;;;;;;;;;5001132;28;90738;-70
2022/01/20 02:21:36;;;;;;;18.02;2.17;;;;;;;;;;5001696;28;92227;-71
2022/01/20 02:24:03;;;;;;;15.13;2.33;;;;;;;;;;5001721;28;91667;-71
2022/01/20 02:26:30;;;;;;;11.00;2.22;;;;;;;;;;5001642;28;90317;-70
2022/01/20 02:28:57;;;;;;;19.38;2.30;;;;;;;;;;5001653;28;91065;-71
2022/01/20 02:31:24;;;;;;;12.90;2.10;;;;;;;;;;5001555;28;91088;-70
2022/01/20 02:33:51;;;;;;;14.38;2.17;;;;;;;;;;5001506;28;90019;-70
2022/01/20 02:36:18;;;;;;;12.85;2.30;;;;;;;;;;5001870;28;91071;-70
2022/01/20 02:38:55;;;;;;;15.95;1.83;;;;;;;;;;5004361;28;91180;-71
2022/01/20 02:46:52;;;;;;;15.05;2.10;;;;;;;;;;5001452;28;90731;-71
2022/01/20 02:49:19;;;;;;;16.05;2.50;;;;;;;;;;5022417;28;88855;-71
2022/01/20 02:51:49;;;;;;;14.68;2.25;;;;;;;;;;5022660;28;89926;-71
2022/01/20 02:54:16;;;;;;;12.68;2.40;;;;;;;;;;5004934;28;90869;-70
2022/01/20 02:56:42;;;;;;;12.57;2.65;;;;;;;;;;5004737;28;90889;-71
2022/01/20 02:59:09;;;;;;;10.48;2.50;;;;;;;;;;5004484;28;92334;-71
2022/01/20 03:01:35;;;;;;;15.48;2.10;;;;;;;;;;5008311;28;89270;-71
2022/01/20 03:04:03;;;;;;;13.35;2.05;;;;;;;;;;5004604;28;91686;-71
2022/01/20 03:06:29;;;;;;;16.23;2.58;;;;;;;;;;5004609;28;90925;-71
2022/01/20 03:08:56;;;;;;;19.73;2.85;;;;;;;;;;5004350;28;91720;-71
2022/01/20 03:11:22;;;;;;;19.92;3.00;;;;;;;;;;5004370;28;92200;-71
2022/01/20 03:13:48;;;;;;;20.17;2.78;;;;;;;;;;5004035;28;91132;-70
2022/01/20 03:16:15;;;;;;;12.00;2.50;;;;;;;;;;5004621;28;90898;-70
2022/01/20 03:18:42;;;;;;;19.27;2.75;;;;;;;;;;5004186;28;91665;-70
2022/01/20 03:21:08;;;;;;;14.45;2.08;;;;;;;;;;5022290;28;87991;-69
2022/01/20 03:23:34;;;;;;;7.10;2.15;;;;;;;;;;5007469;28;91222;-69
2022/01/20 03:26:01;;;;;;;24.38;2.67;;;;;;;;;;5004839;28;89784;-71
2022/01/20 03:28:28;;;;;;;19.45;3.58;;;;;;;;;;5004057;28;90350;-70
2022/01/20 03:30:54;;;;;;;19.17;2.38;;;;;;;;;;5004238;28;91481;-70
2022/01/20 03:33:21;;;;;;;14.93;2.05;;;;;;;;;;5003799;28;91063;-70
2022/01/20 03:35:50;;;;;;;17.67;3.30;;;;;;;;;;5004181;28;91390;-70
2022/01/20 03:38:36;;;;;;;17.25;2.22;;;;;;;;;;5021681;28;89071;-70
2022/01/20 03:41:03;;;;;;;22.17;2.33;;;;;;;;;;5003828;28;90705;-71
2022/01/20 03:43:30;;;;;;;9.63;2.30;;;;;;;;;;5004035;28;91387;-71
2022/01/20 03:45:58;;;;;;;20.45;2.42;;;;;;;;;;5007191;28;91641;-70
2022/01/20 03:48:27;;;;;;;9.70;1.50;;;;;;;;;;5003717;28;91058;-71
2022/01/20 03:51:00;;;;;;;13.15;2.70;;;;;;;;;;5004578;28;90534;-71
2022/01/20 03:53:35;;;;;;;8.05;1.48;;;;;;;;;;5021585;28;88333;-70
2022/01/20 03:56:02;;;;;;;15.45;1.58;;;;;;;;;;5003934;28;91123;-71
2022/01/20 03:58:39;;;;;;;20.10;2.47;;;;;;;;;;5002999;28;92517;-70
2022/01/20 04:01:09;;;;;;;5.32;1.10;;;;;;;;;;5003803;28;89464;-71
2022/01/20 04:03:55;;;;;;;10.52;1.52;;;;;;;;;;5021003;28;88005;-70
2022/01/20 04:06:34;;;;;;;13.65;1.35;;;;;;;;;;5003907;28;91289;-70
2022/01/20 04:09:00;;;;;;;6.60;1.13;;;;;;;;;;5006464;28;89131;-70
2022/01/20 04:11:27;;;;;;;6.07;1.73;;;;;;;;;;5021560;28;88159;-71
2022/01/20 04:13:55;;;;;;;6.22;1.20;;;;;;;;;;5003745;28;90195;-71
2022/01/20 04:16:51;;;;;;;16.20;1.55;;;;;;;;;;5003726;28;90433;-70
2022/01/20 04:19:18;;;;;;;14.85;1.67;;;;;;;;;;5003419;28;91085;-70
2022/01/20 04:21:45;;;;;;;7.30;1.48;;;;;;;;;;5021489;28;88172;-70
2022/01/20 04:24:12;;;;;;;10.93;1.73;;;;;;;;;;5003201;28;92542;-71
2022/01/20 04:26:39;;;;;;;13.20;1.60;;;;;;;;;;5003292;28;89692;-70
2022/01/20 04:29:11;;;;;;;11.82;1.70;;;;;;;;;;5006059;28;90395;-71
2022/01/20 04:31:38;;;;;;;14.57;1.60;;;;;;;;;;5002941;28;91316;-71
2022/01/20 04:34:05;;;;;;;14.45;2.45;;;;;;;;;;5003306;28;91094;-70
2022/01/20 04:36:36;;;;;;;12.35;2.35;;;;;;;;;;5003298;28;89947;-71
2022/01/20 04:39:05;;;;;;;11.48;1.73;;;;;;;;;;5003205;28;91302;-71
2022/01/20 04:41:32;;;;;;;14.82;3.03;;;;;;;;;;5021134;28;87350;-70
2022/01/20 04:44:03;;;;;;;14.85;1.75;;;;;;;;;;5002957;28;91672;-71
2022/01/20 04:57:06;;;;;;;12.70;2.17;;;;;;;;;;4999876;28;91669;-71
2022/01/20 04:59:36;;;;;;;16.70;2.40;;;;;;;;;;4999616;28;92439;-71
2022/01/20 05:02:02;;;;;;;21.33;2.70;;;;;;;;;;4999647;28;91249;-70
2022/01/20 05:04:52;;;;;;;17.63;2.75;;;;;;;;;;4989524;28;89937;-71
2022/01/20 05:07:39;;;;;;;13.35;2.47;;;;;;;;;;4999952;28;90587;-71
2022/01/20 05:10:11;;;;;;;22.85;3.25;;;;;;;;;;4998552;28;90783;-71
2022/01/20 05:15:20;;;;;;;15.90;2.20;;;;;;;;;;5001926;28;91882;-70
2022/01/20 05:17:48;;;;;;;23.95;3.03;;;;;;;;;;4999386;28;92297;-70
2022/01/20 05:20:16;;;;;;;18.88;3.45;;;;;;;;;;4999102;28;92800;-70
2022/01/20 05:22:44;;;;;;;26.77;3.22;;;;;;;;;;4999485;28;90351;-71
2022/01/20 05:25:13;;;;;;;18.58;3.22;;;;;;;;;;4998894;28;91081;-71
2022/01/20 05:27:39;;;;;;;26.20;3.78;;;;;;;;;;4999154;28;91761;-70
2022/01/20 05:30:06;;;;;;;23.77;3.50;;;;;;;;;;4999278;28;91311;-70
2022/01/20 05:32:34;;;;;;;20.63;2.75;;;;;;;;;;4999283;28;91181;-72
2022/01/20 05:35:00;;;;;;;23.52;3.20;;;;;;;;;;4999130;28;90085;-70
2022/01/20 05:37:27;;;;;;;21.25;4.00;;;;;;;;;;5003259;28;88195;-70
2022/01/20 05:39:53;;;;;;;20.85;2.78;;;;;;;;;;4999260;28;89805;-71
2022/01/20 05:42:23;;;;;;;21.40;3.35;;;;;;;;;;4998955;28;90637;-71
2022/01/20 05:45:01;;;;;;;20.63;4.00;;;;;;;;;;4999063;28;91027;-71
2022/01/20 05:47:30;;;;;;;17.08;2.92;;;;;;;;;;4998960;28;91707;-71
2022/01/20 05:50:09;;;;;;;28.08;3.67;;;;;;;;;;4999441;28;87826;-71
2022/01/20 05:52:41;;;;;;;19.55;3.35;;;;;;;;;;4998914;28;92010;-71
2022/01/20 05:55:10;;;;;;;15.57;2.50;;;;;;;;;;4998811;28;92039;-71
2022/01/20 05:57:37;;;;;;;19.02;3.55;;;;;;;;;;4999257;28;88691;-70
2022/01/20 06:00:04;;;;;;;19.02;2.75;;;;;;;;;;5001596;28;89278;-70
2022/01/20 06:05:27;;;;;;;21.85;3.47;;;;;;;;;;4998312;28;90635;-71
2022/01/20 06:07:53;;;;;;;23.20;3.83;;;;;;;;;;4999793;28;88554;-70
2022/01/20 06:10:20;;;;;;;15.80;2.88;;;;;;;;;;4998480;28;91087;-71
2022/01/20 06:12:46;;;;;;;11.10;2.25;;;;;;;;;;4998754;28;90965;-71
2022/01/20 06:15:13;;;;;;;21.60;3.20;;;;;;;;;;4999456;28;89048;-71
2022/01/20 06:17:40;;;;;;;13.25;1.85;;;;;;;;;;4999695;28;88211;-71
2022/01/20 06:20:10;;;;;;;19.08;2.75;;;;;;;;;;4998420;28;90139;-71
2022/01/20 06:22:37;;;;;;;17.08;2.45;;;;;;;;;;5004463;28;89880;-71
2022/01/20 06:25:05;;;;;;;13.80;2.13;;;;;;;;;;5002141;28;89206;-71
2022/01/20 06:27:32;;;;;;;19.65;2.72;;;;;;;;;;5001852;28;90925;-72
2022/01/20 06:29:59;;;;;;;14.25;1.98;;;;;;;;;;5002257;28;88674;-71
2022/01/20 06:32:25;;;;;;;13.18;1.70;;;;;;;;;;5001898;28;91276;-70
2022/01/20 06:34:52;;;;;;;14.55;1.90;;;;;;;;;;5002080;28;90545;-73
2022/01/20 06:37:18;;;;;;;17.17;2.70;;;;;;;;;;5001790;28;89274;-72
2022/01/20 06:39:44;;;;;;;12.80;2.03;;;;;;;;;;5001747;28;89979;-71
2022/01/20 06:42:11;;;;;;;18.08;2.75;;;;;;;;;;5003987;28;91998;-71
2022/01/20 06:44:38;;;;;;;17.27;2.67;;;;;;;;;;5002432;28;89132;-71
2022/01/20 06:47:04;;;;;;;14.40;2.83;;;;;;;;;;5002220;28;90815;-70
2022/01/20 06:49:32;;;;;;;16.92;2.33;;;;;;;;;;5001452;28;91456;-71
2022/01/20 06:52:04;;;;;;;;;;;;;;;;;;5002189;28;91475;-71
2022/01/20 06:54:30;;;;;;;11.82;2.08;;;;;;;;;;5001477;28;91930;-72
2022/01/20 06:56:59;;;;;;;10.45;1.83;;;;;;;;;;5001131;28;90395;-71
2022/01/20 06:59:26;;;;;;;12.98;2.38;;;;;;;;;;5001462;28;90333;-71
2022/01/20 07:01:52;;;;;;;14.05;2.17;;;;;;;;;;5001350;28;91526;-71
2022/01/20 07:04:23;;;;;;;14.93;2.00;;;;;;;;;;5004371;28;90586;-70
2022/01/20 07:06:49;;;;;;;14.15;1.85;;;;;;;;;;5001460;28;92144;-72
2022/01/20 07:09:34;;;;;;;13.43;2.45;;;;;;;;;;5001971;28;87966;-72
2022/01/20 07:12:09;;;;;;;15.93;2.25;;;;;;;;;;5001811;28;91619;-72
2022/01/20 07:14:36;;;;;;;15.05;2.15;;;;;;;;;;5001340;28;91632;-72
2022/01/20 07:17:04;;;;;;;9.48;1.92;;;;;;;;;;5001343;28;90837;-71
2022/01/20 07:19:31;;;;;;;18.77;2.40;;;;;;;;;;5000645;28;91209;-71
2022/01/20 07:21:59;;;;;;;15.95;2.30;;;;;;;;;;5001049;28;91208;-72
2022/01/20 07:24:27;;;;;;;16.33;2.50;;;;;;;;;;4984516;28;90776;-70
2022/01/20 07:26:57;;;;;;;15.40;2.38;;;;;;;;;;5003904;28;89811;-71
2022/01/20 07:29:26;;;;;;;12.25;2.50;;;;;;;;;;5001251;28;90954;-71
2022/01/20 07:31:53;;;;;;;11.00;1.70;;;;;;;;;;5000935;28;91912;-71
2022/01/20 07:34:20;;;;;;;6.68;1.90;;;;;;;;;;4997007;28;96033;-71
2022/01/20 07:36:47;;;;;;;13.80;2.65;;;;;;;;;;4998011;28;91623;-69
2022/01/20 07:39:14;;;;;;;19.30;2.47;;;;;;;;;;4997678;28;95654;-70
2022/01/20 07:41:41;;;;;;;13.65;1.38;;;;;;;;;;4997633;28;95354;-71
2022/01/20 07:44:27;;;;;;;12.27;1.70;;;;;;;;;;4996860;28;94768;-71
2022/01/20 07:47:08;;;;;;;8.48;1.85;;;;;;;;;;4997131;28;97427;-70
2022/01/20 07:49:35;;;;;;;8.60;1.33;;;;;;;;;;5000335;28;95198;-73
2022/01/20 07:52:02;;;;;;;12.95;1.50;;;;;;;;;;4997677;28;95532;-72
2022/01/20 07:54:29;;;;;;;5.82;1.60;;;;;;;;;;4997757;28;95926;-71
2022/01/20 07:56:55;;;;;;;12.23;1.83;;;;;;;;;;4997476;28;92325;-71
2022/01/20 07:59:24;;;;;;;11.93;2.30;;;;;;;;;;4996965;28;95364;-73
2022/01/20 08:01:51;;;;;;;10.80;1.92;;;;;;;;;;4997393;28;95227;-72
2022/01/20 08:04:18;;;;;;;11.32;2.15;;;;;;;;;;4997544;28;92436;-72
2022/01/20 08:06:44;;;;;;;9.10;2.20;;;;;;;;;;5015756;28;95397;-73
2022/01/20 08:09:17;;;;;;;19.13;2.50;;;;;;;;;;5015543;28;98181;-74
2022/01/20 08:12:08;;;;;;;16.45;2.55;;;;;;;;;;5020067;28;93071;-73
2022/01/20 08:15:12;;;;;;;16.05;2.10;;;;;;;;;;4975961;28;94307;-73
2022/01/20 08:18:08;;;;;;;9.75;2.20;;;;;;;;;;5004632;28;92279;-72
2022/01/20 08:20:35;;;;;;;7.95;1.60;;;;;;;;;;5016762;28;95978;-73
2022/01/20 08:23:05;;;;;;;7.25;2.13;;;;;;;;;;5017228;28;94992;-73
2022/01/20 08:25:32;;;;;;;13.65;2.05;;;;;;;;;;5017435;28;92227;-71
2022/01/20 08:27:59;;;;;;;13.93;1.65;;;;;;;;;;5017788;28;95568;-72
2022/01/20 08:30:26;;;;;;;13.57;2.25;;;;;;;;;;5016990;28;94523;-73
2022/01/20 08:32:57;;;;;;;10.52;2.42;;;;;;;;;;5000800;28;92333;-72
2022/01/20 08:35:32;;;;;;;11.68;1.98;;;;;;;;;;5018456;28;95513;-73
2022/01/20 08:38:06;;;;;;;19.00;2.47;;;;;;;;;;5017022;28;92389;-72
2022/01/20 08:40:34;;;;;;;19.23;2.78;;;;;;;;;;5016869;28;95471;-73
2022/01/20 08:43:01;;;;;;;10.32;2.05;;;;;;;;;;5016448;28;95691;-74
2022/01/20 08:45:29;;;;;;;14.45;2.63;;;;;;;;;;5016549;28;92407;-72
2022/01/20 08:47:57;;;;;;;11.30;2.17;;;;;;;;;;5019017;28;95898;-73
2022/01/20 08:50:32;;;;;;;18.65;2.78;;;;;;;;;;5019997;28;96129;-72
2022/01/20 08:52:59;;;;;;;15.48;2.67;;;;;;;;;;5020662;28;92002;-72
2022/01/20 08:55:28;;;;;;;13.88;2.20;;;;;;;;;;5022833;28;95578;-73
2022/01/20 08:58:01;;;;;;;22.35;3.28;;;;;;;;;;5019317;28;92482;-72
2022/01/20 09:00:30;;;;;;;14.18;2.28;;;;;;;;;;5018409;28;95711;-72
2022/01/20 09:03:00;;;;;;;16.73;3.23;;;;;;;;;;5019744;28;96504;-72
2022/01/20 09:05:27;;;;;;;11.95;2.20;;;;;;;;;;5019681;28;92431;-71
2022/01/20 09:08:25;;;;;;;17.33;2.55;;;;;;;;;;5013269;28;94321;-72
2022/01/20 09:11:07;;;;;;;17.75;2.83;;;;;;;;;;5019546;28;95697;-71
2022/01/20 09:16:20;;;;;;;11.98;2.28;;;;;;;;;;5019607;28;95413;-72
2022/01/20 09:18:50;;;;;;;9.75;2.00;;;;;;;;;;5022567;28;94569;-72
2022/01/20 09:21:21;;;;;;;21.60;3.13;;;;;;;;;;5019515;28;95426;-71
2022/01/20 09:23:50;;;;;;;9.50;2.38;;;;;;;;;;5019445;28;96011;-73
2022/01/20 09:26:17;;;;;;;16.40;2.45;;;;;;;;;;5035727;28;94801;-74
2022/01/20 09:28:45;;;;;;;17.42;2.45;;;;;;;;;;5019465;28;97959;-71
2022/01/20 09:31:18;;;;;;;19.60;2.78;;;;;;;;;;5019407;28;95614;-72
2022/01/20 09:33:46;;;;;;;14.75;2.05;;;;;;;;;;5037325;28;92382;-72
2022/01/20 09:36:13;;;;;;;11.32;2.30;;;;;;;;;;5019229;28;95885;-71
2022/01/20 09:38:40;;;;;;;20.05;1.98;;;;;;;;;;5019226;28;96037;-71
2022/01/20 09:41:12;;;;;;;;;;;;;;;;;;5022556;28;92999;-72
2022/01/20 09:43:39;;;;;;;13.98;2.53;;;;;;;;;;5019726;28;96690;-70
2022/01/20 09:46:05;;;;;;;12.73;1.90;;;;;;;;;;5018959;28;92327;-72
2022/01/20 09:48:39;;;;;;;17.00;2.55;;;;;;;;;;5018831;28;95931;-71
2022/01/20 09:51:30;;;;;;;7.88;1.92;;;;;;;;;;5017318;28;98180;-73
2022/01/20 09:54:08;;;;;;;10.18;1.67;;;;;;;;;;5019314;28;92486;-73
2022/01/20 09:56:52;;;;;;;9.65;2.30;;;;;;;;;;5033365;28;93188;-72
2022/01/20 09:59:19;;;;;;;6.97;1.85;;;;;;;;;;5023337;27;95280;-72
2022/01/20 10:01:47;;;;;;;12.52;2.50;;;;;;;;;;5039227;27;92578;-72
2022/01/20 10:04:23;;;;;;;10.35;1.67;;;;;;;;;;5042127;27;95765;-71
2022/01/20 10:06:53;;;;;;;12.93;2.15;;;;;;;;;;5038586;27;92479;-72
2022/01/20 10:09:33;;;;;;;9.00;1.77;;;;;;;;;;5039579;27;96044;-71
2022/01/20 10:12:26;;;;;;;22.30;2.47;;;;;;;;;;5056124;27;94421;-71
2022/01/20 10:15:00;;;;;;;14.27;2.35;;;;;;;;;;5039072;27;92378;-72
2022/01/20 10:17:45;;;;;;;12.98;1.95;;;;;;;;;;5053017;27;94783;-73
2022/01/20 10:20:18;;;;;;;11.10;2.42;;;;;;;;;;5038541;27;94777;-72
2022/01/20 10:22:56;;;;;;;12.90;2.05;;;;;;;;;;5038938;27;92425;-73
2022/01/20 10:25:41;;;;;;;8.23;1.70;;;;;;;;;;5056605;27;92403;-73
2022/01/20 10:28:17;;;;;;;10.50;1.77;;;;;;;;;;5041809;27;96290;-72
2022/01/20 10:30:46;;;;;;;17.35;2.50;;;;;;;;;;5022606;27;95591;-73
2022/01/20 10:33:14;;;;;;;8.48;1.85;;;;;;;;;;5038411;27;94968;-73
2022/01/20 10:35:43;;;;;;;18.02;1.95;;;;;;;;;;5039300;27;91638;-72
2022/01/20 10:38:24;;;;;;;11.88;2.28;;;;;;;;;;5038173;27;94377;-73
2022/01/20 10:40:56;;;;;;;12.93;2.10;;;;;;;;;;5038486;27;95625;-72
2022/01/20 10:43:34;;;;;;;8.93;1.88;;;;;;;;;;5037096;27;94742;-72
2022/01/20 10:46:18;;;;;;;10.60;2.13;;;;;;;;;;5038539;27;96972;-74
2022/01/20 10:48:56;;;;;;;16.35;2.40;;;;;;;;;;5037783;27;95480;-74
2022/01/20 10:51:23;;;;;;;6.95;1.67;;;;;;;;;;5041309;27;92363;-74
2022/01/20 10:54:00;;;;;;;12.85;2.17;;;;;;;;;;5038390;27;96682;-74
2022/01/20 10:56:29;;;;;;;12.43;1.90;;;;;;;;;;5038372;27;92368;-73
2022/01/20 10:59:05;;;;;;;12.27;2.28;;;;;;;;;;5038030;27;95645;-74
2022/01/20 11:01:32;;;;;;;7.53;1.50;;;;;;;;;;5038748;27;94205;-74
2022/01/20 11:03:59;;;;;;;8.05;1.70;;;;;;;;;;5038651;27;92282;-74
2022/01/20 11:06:27;;;;;;;11.75;2.33;;;;;;;;;;5038256;27;95548;-74
2022/01/20 11:09:06;;;;;;;10.57;1.85;;;;;;;;;;5038097;27;98021;-74
2022/01/20 11:11:52;;;;;;;11.73;2.70;;;;;;;;;;5050678;27;92275;-74
2022/01/20 11:14:46;;;;;;;11.10;2.03;;;;;;;;;;5039632;28;93887;-74
2022/01/20 11:17:21;;;;;;;6.60;1.92;;;;;;;;;;5021562;28;92529;-76
2022/01/20 11:19:48;;;;;;;13.25;2.33;;;;;;;;;;5021405;28;95295;-74
2022/01/20 11:22:14;;;;;;;10.57;1.90;;;;;;;;;;5021198;28;96601;-71
2022/01/20 11:24:58;;;;;;;7.72;1.73;;;;;;;;;;5021509;28;92393;-71
2022/01/20 11:27:42;;;;;;;9.55;1.92;;;;;;;;;;5021797;28;95675;-75
2022/01/20 11:30:35;;;;;;;15.07;1.85;;;;;;;;;;5014356;28;94069;-73
2022/01/20 11:33:17;;;;;;;8.85;1.45;;;;;;;;;;5021310;28;92414;-74
2022/01/20 11:35:46;;;;;;;6.47;1.58;;;;;;;;;;5022875;28;95154;-73
2022/01/20 11:38:14;;;;;;;5.00;1.08;;;;;;;;;;5039257;28;92307;-75
2022/01/20 11:40:48;;;;;;;10.75;1.50;;;;;;;;;;5039047;28;92633;-71
2022/01/20 11:43:14;;;;;;;13.93;1.88;;;;;;;;;;5038929;28;93692;-73
2022/01/20 11:45:43;;;;;;;12.63;1.73;;;;;;;;;;5039084;28;92324;-73
2022/01/20 11:48:11;;;;;;;9.43;1.67;;;;;;;;;;5038926;28;92649;-73
2022/01/20 11:50:37;;;;;;;5.93;1.70;;;;;;;;;;5039182;28;93171;-73
2022/01/20 11:53:07;;;;;;;8.05;1.38;;;;;;;;;;5039604;28;91508;-72
2022/01/20 11:55:41;;;;;;;5.25;1.30;;;;;;;;;;5038780;28;92350;-72
2022/01/20 11:58:11;;;;;;;17.80;2.25;;;;;;;;;;5041855;28;93726;-72
2022/01/20 12:00:37;;;;;;;5.82;1.90;;;;;;;;;;5037421;28;95654;-70
2022/01/20 12:03:11;;;;;;;9.57;1.85;;;;;;;;;;5038627;28;93529;-70
2022/01/20 12:05:55;;;;;;;9.35;1.92;;;;;;;;;;5020417;28;92364;-73
2022/01/20 12:08:32;;;;;;;9.80;1.50;;;;;;;;;;5020564;28;95398;-71
2022/01/20 12:11:04;;;;;;;9.88;2.17;;;;;;;;;;5038512;28;93598;-71
2022/01/20 12:13:31;;;;;;;10.27;1.88;;;;;;;;;;5038730;28;92553;-69
2022/01/20 12:16:00;;;;;;;14.88;2.15;;;;;;;;;;5038717;28;93904;-68
2022/01/20 12:18:28;;;;;;;17.63;2.53;;;;;;;;;;5020622;28;95145;-70
2022/01/20 12:20:54;;;;;;;11.93;1.92;;;;;;;;;;5041490;27;92729;-71
2022/01/20 12:23:24;;;;;;;12.63;2.15;;;;;;;;;;5038571;28;93590;-70
2022/01/20 12:25:50;;;;;;;10.25;1.58;;;;;;;;;;5036974;28;94682;-69
2022/01/20 12:28:17;;;;;;;10.15;1.98;;;;;;;;;;5038274;28;96132;-70
2022/01/20 12:30:47;;;;;;;12.90;1.98;;;;;;;;;;5038075;28;93420;-71
2022/01/20 12:33:18;;;;;;;6.82;1.73;;;;;;;;;;5038440;28;92206;-70
2022/01/20 12:35:44;;;;;;;11.02;1.60;;;;;;;;;;5038516;28;93335;-69
2022/01/20 12:38:18;;;;;;;11.38;2.22;;;;;;;;;;5038304;28;93554;-71
2022/01/20 12:41:01;;;;;;;12.52;1.52;;;;;;;;;;5038419;28;92243;-73
2022/01/20 12:43:40;;;;;;;12.82;2.08;;;;;;;;;;5041298;28;93397;-70
2022/01/20 12:46:08;;;;;;;14.95;1.80;;;;;;;;;;5020107;28;92389;-70
2022/01/20 12:48:35;;;;;;;10.57;2.00;;;;;;;;;;5037894;28;93811;-71
2022/01/20 12:51:02;;;;;;;12.32;2.15;;;;;;;;;;5036001;28;95923;-70
2022/01/20 12:53:33;;;;;;;12.90;2.28;;;;;;;;;;5038100;28;92250;-71
2022/01/20 12:55:59;;;;;;;13.50;2.30;;;;;;;;;;5037543;28;93435;-71
2022/01/20 12:58:25;;;;;;;8.05;1.70;;;;;;;;;;5037914;28;93927;-71
2022/01/20 13:01:02;;;;;;;10.98;2.00;;;;;;;;;;5038038;28;92323;-70
2022/01/20 13:03:33;;;;;;;13.85;2.25;;;;;;;;;;5040908;28;93315;-70
2022/01/20 13:05:59;;;;;;;14.40;2.13;;;;;;;;;;5037896;28;92149;-71
2022/01/20 13:08:31;;;;;;;15.27;2.10;;;;;;;;;;5037615;28;93204;-71
2022/01/20 13:11:10;;;;;;;11.70;2.40;;;;;;;;;;5037548;28;93699;-71
2022/01/20 13:13:36;;;;;;;16.30;2.38;;;;;;;;;;5019745;28;92311;-70
2022/01/20 13:16:12;;;;;;;14.02;2.10;;;;;;;;;;5036296;28;94730;-71
2022/01/20 13:18:38;;;;;;;12.90;1.83;;;;;;;;;;5037414;28;93074;-71
2022/01/20 13:21:07;;;;;;;18.50;2.47;;;;;;;;;;5037685;28;92267;-70
2022/01/20 13:23:55;;;;;;;9.77;2.10;;;;;;;;;;5037640;28;92843;-71
2022/01/20 13:26:22;;;;;;;13.48;2.25;;;;;;;;;;5040469;28;93453;-70
2022/01/20 13:28:58;;;;;;;13.55;2.05;;;;;;;;;;5037373;28;93953;-70
2022/01/20 13:31:34;;;;;;;15.02;2.45;;;;;;;;;;5036156;27;93328;-70
2022/01/20 13:34:08;;;;;;;16.77;2.10;;;;;;;;;;5037957;28;91669;-71
2022/01/20 13:36:38;;;;;;;11.13;2.25;;;;;;;;;;5037693;28;92746;-71
2022/01/20 13:39:05;;;;;;;16.85;2.22;;;;;;;;;;5037314;28;93518;-71
2022/01/20 13:41:32;;;;;;;13.70;1.98;;;;;;;;;;5035662;28;94532;-70
2022/01/20 13:46:45;;;;;;;6.00;1.60;;;;;;;;;;5037203;28;93710;-71
2022/01/20 13:49:13;;;;;;;10.07;1.45;;;;;;;;;;5039753;28;93310;-72
2022/01/20 13:51:41;;;;;;;7.57;1.83;;;;;;;;;;5036816;28;94335;-72
2022/01/20 13:54:08;;;;;;;12.30;1.98;;;;;;;;;;5037155;28;92343;-72
2022/01/20 13:56:34;;;;;;;9.40;2.22;;;;;;;;;;5036902;28;93475;-71
2022/01/20 13:59:07;;;;;;;10.60;1.98;;;;;;;;;;5037505;28;92670;-73
2022/01/20 14:01:54;;;;;;;21.75;2.10;;;;;;;;;;5037086;28;92327;-73
2022/01/20 14:04:20;;;;;;;11.95;1.60;;;;;;;;;;5037072;28;93662;-72
2022/01/20 14:06:47;;;;;;;13.30;2.60;;;;;;;;;;5034609;28;96677;-72
2022/01/20 14:09:13;;;;;;;10.90;2.42;;;;;;;;;;5036854;28;92290;-71
2022/01/20 14:11:40;;;;;;;10.88;2.33;;;;;;;;;;5039533;28;94299;-71
2022/01/20 14:14:08;;;;;;;16.17;2.33;;;;;;;;;;5037017;28;92257;-70
2022/01/20 14:16:35;;;;;;;18.13;3.17;;;;;;;;;;5037096;28;93694;-70
2022/01/20 14:19:03;;;;;;;10.82;1.65;;;;;;;;;;5036783;28;93407;-71
2022/01/20 14:21:32;;;;;;;12.50;1.88;;;;;;;;;;5036530;28;93272;-71
2022/01/20 14:24:00;;;;;;;17.67;2.42;;;;;;;;;;5037066;28;93684;-71
2022/01/20 14:26:32;;;;;;;15.23;2.63;;;;;;;;;;5036628;28;93737;-71
2022/01/20 14:28:58;;;;;;;;;;;;;;;;;;5037067;28;92294;-70
2022/01/20 14:31:25;;;;;;;19.52;3.38;;;;;;;;;;5034518;28;121912;-71
2022/01/20 14:33:51;;;;;;;18.73;2.95;;;;;;;;;;5039180;28;93543;-71
2022/01/20 14:36:18;;;;;;;24.60;3.03;;;;;;;;;;5036549;28;93200;-70
2022/01/20 14:38:44;;;;;;;19.15;2.92;;;;;;;;;;5036569;28;93483;-71
2022/01/20 14:41:14;;;;;;;18.20;2.47;;;;;;;;;;5036646;28;92278;-71
2022/01/20 14:43:41;;;;;;;14.80;2.90;;;;;;;;;;5038889;27;93611;-71
2022/01/20 14:46:08;;;;;;;16.00;2.47;;;;;;;;;;5039973;28;93528;-71
2022/01/20 14:48:35;;;;;;;20.05;2.80;;;;;;;;;;5021738;27;91659;-72
2022/01/20 14:51:04;;;;;;;11.05;2.20;;;;;;;;;;5060235;27;92292;-71
2022/01/20 14:53:31;;;;;;;16.73;2.40;;;;;;;;;;5060033;27;93616;-71
2022/01/20 14:55:59;;;;;;;11.38;2.53;;;;;;;;;;5061867;27;94663;-71
2022/01/20 14:58:26;;;;;;;10.80;1.70;;;;;;;;;;5060263;27;93122;-71
2022/01/20 15:00:53;;;;;;;12.30;2.10;;;;;;;;;;5060095;27;92408;-71
2022/01/20 15:03:20;;;;;;;10.55;2.25;;;;;;;;;;5059965;27;92524;-71
2022/01/20 15:05:47;;;;;;;10.98;1.80;;;;;;;;;;5059912;27;93399;-70
2022/01/20 15:08:13;;;;;;;12.32;1.85;;;;;;;;;;5059987;27;93428;-70
2022/01/20 15:10:40;;;;;;;13.82;2.33;;;;;;;;;;5060160;27;93624;-71
2022/01/20 15:13:06;;;;;;;9.27;2.20;;;;;;;;;;5060163;27;92826;-71
2022/01/20 15:15:32;;;;;;;11.75;1.65;;;;;;;;;;5063036;27;92319;-72
2022/01/20 15:17:59;;;;;;;8.27;1.77;;;;;;;;;;5059465;27;93682;-71
2022/01/20 15:20:46;;;;;;;2.78;1.13;;;;;;;;;;5058099;27;94718;-70
2022/01/20 15:23:13;;;;;;;7.07;1.10;;;;;;;;;;5060197;27;94147;-72
2022/01/20 15:25:39;;;;;;;9.15;2.28;;;;;;;;;;5059545;27;93559;-70
2022/01/20 15:28:05;;;;;;;6.50;1.27;;;;;;;;;;5059294;27;92474;-72
2022/01/20 15:30:32;;;;;;;2.97;1.10;;;;;;;;;;5059618;27;93405;-71
2022/01/20 15:32:58;;;;;;;7.50;1.30;;;;;;;;;;5041557;27;93645;-71
2022/01/20 15:35:24;;;;;;;6.80;1.33;;;;;;;;;;5059788;27;92394;-70
2022/01/20 15:37:51;;;;;;;8.05;1.52;;;;;;;;;;5063051;27;92818;-73
2022/01/20 15:40:17;;;;;;;6.03;1.50;;;;;;;;;;5059601;27;92330;-74
2022/01/20 15:42:44;;;;;;;9.48;1.63;;;;;;;;;;5041207;27;93137;-72
2022/01/20 15:45:11;;;;;;;13.02;1.70;;;;;;;;;;5057458;27;95685;-71
2022/01/20 15:47:37;;;;;;;4.45;1.42;;;;;;;;;;5059470;27;92339;-70
2022/01/20 15:50:05;;;;;;;11.23;1.40;;;;;;;;;;5018932;28;93478;-71
2022/01/20 15:52:31;;;;;;;13.57;1.90;;;;;;;;;;5018738;28;93659;-69
2022/01/20 15:54:58;;;;;;;16.77;1.70;;;;;;;;;;5018131;28;92388;-70